sensor_id;sensor_type;location;lat;lon;timestamp;P1;durP1;ratioP1;P2;durP2;ratioP2
41426;SDS011;27171;51.812;19.514;2023-03-14T00:02:28;5.47;;;2.50;;
41426;SDS011;27171;51.812;19.514;2023-03-14T00:05:29;4.40;;;2.35;;
41426;SDS011;27171;51.812;19.514;2023-03-14T00:08:30;4.97;;;2.17;;
41426;SDS011;27171;51.812;19.514;2023-03-14T00:11:31;5.57;;;2.30;;
41426;SDS011;27171;51.812;19.514;2023-03-14T00:14:32;5.53;;;2.58;;
41426;SDS011;27171;51.812;19.514;2023-03-14T00:17:34;4.78;;;2.58;;
41426;SDS011;27171;51.812;19.514;2023-03-14T00:20:36;6.20;;;3.40;;
41426;SDS011;27171;51.812;19.514;2023-03-14T00:23:38;4.63;;;2.53;;
41426;SDS011;27171;51.812;19.514;2023-03-14T00:26:40;3.55;;;2.10;;
41426;SDS011;27171;51.812;19.514;2023-03-14T00:29:42;4.55;;;1.90;;
41426;SDS011;27171;51.812;19.514;2023-03-14T00:32:43;6.30;;;2.00;;
41426;SDS011;27171;51.812;19.514;2023-03-14T00:35:51;3.58;;;1.60;;
41426;SDS011;27171;51.812;19.514;2023-03-14T00:39:00;4.45;;;2.25;;
41426;SDS011;27171;51.812;19.514;2023-03-14T00:42:01;5.65;;;2.58;;
41426;SDS011;27171;51.812;19.514;2023-03-14T00:45:03;5.00;;;2.10;;
41426;SDS011;27171;51.812;19.514;2023-03-14T00:48:04;5.35;;;2.08;;
41426;SDS011;27171;51.812;19.514;2023-03-14T00:51:06;6.45;;;2.20;;
41426;SDS011;27171;51.812;19.514;2023-03-14T00:54:09;3.58;;;2.17;;
41426;SDS011;27171;51.812;19.514;2023-03-14T00:57:10;4.82;;;2.10;;
41426;SDS011;27171;51.812;19.514;2023-03-14T01:00:11;4.10;;;2.20;;
41426;SDS011;27171;51.812;19.514;2023-03-14T01:03:13;4.38;;;1.88;;
41426;SDS011;27171;51.812;19.514;2023-03-14T01:06:16;4.20;;;1.67;;
41426;SDS011;27171;51.812;19.514;2023-03-14T01:09:19;6.50;;;1.65;;
41426;SDS011;27171;51.812;19.514;2023-03-14T01:12:22;3.55;;;1.85;;
41426;SDS011;27171;51.812;19.514;2023-03-14T01:15:23;3.40;;;1.50;;
41426;SDS011;27171;51.812;19.514;2023-03-14T01:18:24;4.40;;;1.23;;
41426;SDS011;27171;51.812;19.514;2023-03-14T01:21:26;2.40;;;1.20;;
41426;SDS011;27171;51.812;19.514;2023-03-14T01:24:29;3.95;;;1.35;;
41426;SDS011;27171;51.812;19.514;2023-03-14T01:27:30;3.83;;;1.52;;
41426;SDS011;27171;51.812;19.514;2023-03-14T01:30:32;6.03;;;1.88;;
41426;SDS011;27171;51.812;19.514;2023-03-14T01:33:33;4.50;;;1.50;;
41426;SDS011;27171;51.812;19.514;2023-03-14T01:36:35;2.75;;;1.42;;
41426;SDS011;27171;51.812;19.514;2023-03-14T01:39:36;3.25;;;1.40;;
41426;SDS011;27171;51.812;19.514;2023-03-14T01:42:37;4.13;;;1.73;;
41426;SDS011;27171;51.812;19.514;2023-03-14T01:49:01;4.72;;;1.83;;
41426;SDS011;27171;51.812;19.514;2023-03-14T01:55:37;6.13;;;2.53;;
41426;SDS011;27171;51.812;19.514;2023-03-14T01:58:39;5.30;;;2.35;;
41426;SDS011;27171;51.812;19.514;2023-03-14T02:01:43;4.70;;;1.85;;
41426;SDS011;27171;51.812;19.514;2023-03-14T02:04:47;5.00;;;2.13;;
41426;SDS011;27171;51.812;19.514;2023-03-14T02:07:52;4.10;;;1.90;;
41426;SDS011;27171;51.812;19.514;2023-03-14T02:11:00;4.20;;;2.20;;
41426;SDS011;27171;51.812;19.514;2023-03-14T02:14:26;5.53;;;2.00;;
41426;SDS011;27171;51.812;19.514;2023-03-14T02:17:45;3.75;;;1.95;;
41426;SDS011;27171;51.812;19.514;2023-03-14T02:21:01;5.78;;;2.58;;
41426;SDS011;27171;51.812;19.514;2023-03-14T02:24:19;4.82;;;3.00;;
41426;SDS011;27171;51.812;19.514;2023-03-14T02:27:30;4.60;;;2.83;;
41426;SDS011;27171;51.812;19.514;2023-03-14T02:30:32;6.25;;;3.40;;
41426;SDS011;27171;51.812;19.514;2023-03-14T02:33:35;6.07;;;3.00;;
41426;SDS011;27171;51.812;19.514;2023-03-14T02:36:38;5.03;;;2.72;;
41426;SDS011;27171;51.812;19.514;2023-03-14T02:39:41;6.13;;;3.58;;
41426;SDS011;27171;51.812;19.514;2023-03-14T02:42:44;5.57;;;3.38;;
41426;SDS011;27171;51.812;19.514;2023-03-14T02:45:46;7.72;;;4.03;;
41426;SDS011;27171;51.812;19.514;2023-03-14T02:52:02;6.23;;;3.93;;
41426;SDS011;27171;51.812;19.514;2023-03-14T02:55:04;9.45;;;4.90;;
41426;SDS011;27171;51.812;19.514;2023-03-14T02:58:08;10.45;;;5.25;;
41426;SDS011;27171;51.812;19.514;2023-03-14T03:01:09;9.50;;;5.47;;
41426;SDS011;27171;51.812;19.514;2023-03-14T03:04:12;10.15;;;6.50;;
41426;SDS011;27171;51.812;19.514;2023-03-14T03:07:13;10.32;;;5.82;;
41426;SDS011;27171;51.812;19.514;2023-03-14T03:10:14;11.10;;;6.45;;
41426;SDS011;27171;51.812;19.514;2023-03-14T03:13:16;13.85;;;7.10;;
41426;SDS011;27171;51.812;19.514;2023-03-14T03:16:20;13.65;;;7.75;;
41426;SDS011;27171;51.812;19.514;2023-03-14T03:19:22;10.32;;;7.18;;
41426;SDS011;27171;51.812;19.514;2023-03-14T03:22:23;11.57;;;7.25;;
41426;SDS011;27171;51.812;19.514;2023-03-14T03:25:24;14.32;;;8.40;;
41426;SDS011;27171;51.812;19.514;2023-03-14T03:28:26;14.73;;;7.97;;
41426;SDS011;27171;51.812;19.514;2023-03-14T03:31:28;10.70;;;6.82;;
41426;SDS011;27171;51.812;19.514;2023-03-14T03:34:30;11.43;;;6.93;;
41426;SDS011;27171;51.812;19.514;2023-03-14T03:37:32;12.73;;;7.93;;
41426;SDS011;27171;51.812;19.514;2023-03-14T03:40:34;12.57;;;6.90;;
41426;SDS011;27171;51.812;19.514;2023-03-14T03:43:35;11.20;;;6.60;;
41426;SDS011;27171;51.812;19.514;2023-03-14T03:46:38;12.00;;;6.47;;
41426;SDS011;27171;51.812;19.514;2023-03-14T03:49:40;10.68;;;6.28;;
41426;SDS011;27171;51.812;19.514;2023-03-14T03:52:43;10.75;;;5.97;;
41426;SDS011;27171;51.812;19.514;2023-03-14T03:55:44;12.93;;;6.45;;
41426;SDS011;27171;51.812;19.514;2023-03-14T03:58:45;11.30;;;6.18;;
41426;SDS011;27171;51.812;19.514;2023-03-14T04:01:47;10.43;;;5.88;;
41426;SDS011;27171;51.812;19.514;2023-03-14T04:04:48;10.40;;;6.28;;
41426;SDS011;27171;51.812;19.514;2023-03-14T04:10:58;9.88;;;5.38;;
41426;SDS011;27171;51.812;19.514;2023-03-14T04:14:14;9.25;;;4.68;;
41426;SDS011;27171;51.812;19.514;2023-03-14T04:17:16;8.23;;;5.07;;
41426;SDS011;27171;51.812;19.514;2023-03-14T04:20:17;9.95;;;5.50;;
41426;SDS011;27171;51.812;19.514;2023-03-14T04:23:18;11.43;;;5.13;;
41426;SDS011;27171;51.812;19.514;2023-03-14T04:26:21;8.77;;;5.03;;
41426;SDS011;27171;51.812;19.514;2023-03-14T04:29:23;9.35;;;4.68;;
41426;SDS011;27171;51.812;19.514;2023-03-14T04:32:24;8.65;;;4.95;;
41426;SDS011;27171;51.812;19.514;2023-03-14T04:35:26;10.20;;;5.35;;
41426;SDS011;27171;51.812;19.514;2023-03-14T04:38:34;7.60;;;5.40;;
41426;SDS011;27171;51.812;19.514;2023-03-14T04:41:35;8.50;;;5.03;;
41426;SDS011;27171;51.812;19.514;2023-03-14T04:44:37;9.73;;;5.10;;
41426;SDS011;27171;51.812;19.514;2023-03-14T04:47:39;9.20;;;5.00;;
41426;SDS011;27171;51.812;19.514;2023-03-14T04:50:41;8.15;;;4.10;;
41426;SDS011;27171;51.812;19.514;2023-03-14T04:53:43;8.90;;;5.55;;
41426;SDS011;27171;51.812;19.514;2023-03-14T04:56:47;10.38;;;5.65;;
41426;SDS011;27171;51.812;19.514;2023-03-14T04:59:48;9.23;;;5.65;;
41426;SDS011;27171;51.812;19.514;2023-03-14T05:03:10;9.40;;;5.00;;
41426;SDS011;27171;51.812;19.514;2023-03-14T05:06:30;11.32;;;5.53;;
41426;SDS011;27171;51.812;19.514;2023-03-14T05:09:45;8.85;;;4.90;;
41426;SDS011;27171;51.812;19.514;2023-03-14T05:13:00;9.77;;;5.90;;
41426;SDS011;27171;51.812;19.514;2023-03-14T05:16:21;9.10;;;5.20;;
41426;SDS011;27171;51.812;19.514;2023-03-14T05:19:36;10.27;;;5.43;;
41426;SDS011;27171;51.812;19.514;2023-03-14T05:22:58;12.18;;;5.30;;
41426;SDS011;27171;51.812;19.514;2023-03-14T05:26:19;9.43;;;5.15;;
41426;SDS011;27171;51.812;19.514;2023-03-14T05:29:40;9.90;;;4.88;;
41426;SDS011;27171;51.812;19.514;2023-03-14T05:33:04;8.63;;;5.32;;
41426;SDS011;27171;51.812;19.514;2023-03-14T05:36:24;8.65;;;5.38;;
41426;SDS011;27171;51.812;19.514;2023-03-14T05:39:38;10.23;;;5.28;;
41426;SDS011;27171;51.812;19.514;2023-03-14T05:42:52;9.45;;;5.18;;
41426;SDS011;27171;51.812;19.514;2023-03-14T05:46:07;11.15;;;5.57;;
41426;SDS011;27171;51.812;19.514;2023-03-14T05:49:22;8.68;;;5.43;;
41426;SDS011;27171;51.812;19.514;2023-03-14T05:52:37;8.65;;;5.25;;
41426;SDS011;27171;51.812;19.514;2023-03-14T05:56:08;8.77;;;5.22;;
41426;SDS011;27171;51.812;19.514;2023-03-14T05:59:32;7.63;;;4.88;;
41426;SDS011;27171;51.812;19.514;2023-03-14T06:02:40;8.32;;;4.93;;
41426;SDS011;27171;51.812;19.514;2023-03-14T06:05:51;8.30;;;4.72;;
41426;SDS011;27171;51.812;19.514;2023-03-14T06:08:55;9.02;;;4.68;;
41426;SDS011;27171;51.812;19.514;2023-03-14T06:11:56;11.48;;;5.68;;
41426;SDS011;27171;51.812;19.514;2023-03-14T06:14:58;8.38;;;4.93;;
41426;SDS011;27171;51.812;19.514;2023-03-14T06:17:59;8.32;;;5.00;;
41426;SDS011;27171;51.812;19.514;2023-03-14T06:21:01;8.85;;;5.13;;
41426;SDS011;27171;51.812;19.514;2023-03-14T06:24:03;8.45;;;5.35;;
41426;SDS011;27171;51.812;19.514;2023-03-14T06:27:07;9.95;;;5.43;;
41426;SDS011;27171;51.812;19.514;2023-03-14T06:30:09;10.82;;;5.65;;
41426;SDS011;27171;51.812;19.514;2023-03-14T06:33:11;10.77;;;5.30;;
41426;SDS011;27171;51.812;19.514;2023-03-14T06:36:13;9.45;;;4.70;;
41426;SDS011;27171;51.812;19.514;2023-03-14T06:39:17;7.88;;;4.10;;
41426;SDS011;27171;51.812;19.514;2023-03-14T06:42:22;6.63;;;3.90;;
41426;SDS011;27171;51.812;19.514;2023-03-14T06:45:24;6.70;;;4.28;;
41426;SDS011;27171;51.812;19.514;2023-03-14T06:48:27;8.10;;;4.30;;
41426;SDS011;27171;51.812;19.514;2023-03-14T06:51:29;7.55;;;3.42;;
41426;SDS011;27171;51.812;19.514;2023-03-14T06:54:31;6.32;;;3.42;;
41426;SDS011;27171;51.812;19.514;2023-03-14T06:57:32;7.22;;;3.13;;
41426;SDS011;27171;51.812;19.514;2023-03-14T07:00:34;5.70;;;2.63;;
41426;SDS011;27171;51.812;19.514;2023-03-14T07:03:36;6.72;;;3.13;;
41426;SDS011;27171;51.812;19.514;2023-03-14T07:06:39;7.20;;;2.60;;
41426;SDS011;27171;51.812;19.514;2023-03-14T07:09:40;5.57;;;2.25;;
41426;SDS011;27171;51.812;19.514;2023-03-14T07:12:41;5.80;;;2.72;;
41426;SDS011;27171;51.812;19.514;2023-03-14T07:15:43;5.22;;;2.50;;
41426;SDS011;27171;51.812;19.514;2023-03-14T07:18:45;5.78;;;2.03;;
41426;SDS011;27171;51.812;19.514;2023-03-14T07:21:46;4.35;;;2.30;;
41426;SDS011;27171;51.812;19.514;2023-03-14T07:24:50;4.97;;;2.55;;
41426;SDS011;27171;51.812;19.514;2023-03-14T07:27:52;5.75;;;3.25;;
41426;SDS011;27171;51.812;19.514;2023-03-14T07:30:54;4.60;;;2.25;;
41426;SDS011;27171;51.812;19.514;2023-03-14T07:34:01;6.20;;;2.13;;
41426;SDS011;27171;51.812;19.514;2023-03-14T07:37:06;6.55;;;2.90;;
41426;SDS011;27171;51.812;19.514;2023-03-14T07:40:09;5.15;;;2.25;;
41426;SDS011;27171;51.812;19.514;2023-03-14T07:43:11;5.45;;;2.50;;
41426;SDS011;27171;51.812;19.514;2023-03-14T07:46:19;5.38;;;2.53;;
41426;SDS011;27171;51.812;19.514;2023-03-14T07:49:20;5.07;;;3.20;;
41426;SDS011;27171;51.812;19.514;2023-03-14T07:52:21;4.78;;;2.38;;
41426;SDS011;27171;51.812;19.514;2023-03-14T07:55:22;6.47;;;2.42;;
41426;SDS011;27171;51.812;19.514;2023-03-14T07:58:23;4.25;;;2.10;;
41426;SDS011;27171;51.812;19.514;2023-03-14T08:01:25;5.50;;;2.70;;
41426;SDS011;27171;51.812;19.514;2023-03-14T08:04:26;6.75;;;3.00;;
41426;SDS011;27171;51.812;19.514;2023-03-14T08:07:27;8.77;;;3.20;;
41426;SDS011;27171;51.812;19.514;2023-03-14T08:10:28;7.90;;;3.33;;
41426;SDS011;27171;51.812;19.514;2023-03-14T08:13:29;4.65;;;2.65;;
41426;SDS011;27171;51.812;19.514;2023-03-14T08:16:30;7.07;;;2.95;;
41426;SDS011;27171;51.812;19.514;2023-03-14T08:19:31;4.60;;;2.42;;
41426;SDS011;27171;51.812;19.514;2023-03-14T08:22:33;6.97;;;2.75;;
41426;SDS011;27171;51.812;19.514;2023-03-14T08:25:34;4.85;;;2.30;;
41426;SDS011;27171;51.812;19.514;2023-03-14T08:28:35;4.20;;;2.70;;
41426;SDS011;27171;51.812;19.514;2023-03-14T08:31:36;6.30;;;2.78;;
41426;SDS011;27171;51.812;19.514;2023-03-14T08:34:37;4.82;;;2.50;;
41426;SDS011;27171;51.812;19.514;2023-03-14T08:37:38;6.32;;;2.33;;
41426;SDS011;27171;51.812;19.514;2023-03-14T08:40:40;5.97;;;2.72;;
41426;SDS011;27171;51.812;19.514;2023-03-14T08:43:41;4.45;;;2.80;;
41426;SDS011;27171;51.812;19.514;2023-03-14T08:46:42;6.20;;;3.28;;
41426;SDS011;27171;51.812;19.514;2023-03-14T08:49:44;7.10;;;2.97;;
41426;SDS011;27171;51.812;19.514;2023-03-14T08:52:45;9.57;;;2.72;;
41426;SDS011;27171;51.812;19.514;2023-03-14T08:55:46;4.93;;;2.42;;
41426;SDS011;27171;51.812;19.514;2023-03-14T08:58:47;6.22;;;2.53;;
41426;SDS011;27171;51.812;19.514;2023-03-14T09:01:48;4.18;;;2.55;;
41426;SDS011;27171;51.812;19.514;2023-03-14T09:04:49;7.40;;;3.30;;
41426;SDS011;27171;51.812;19.514;2023-03-14T09:07:51;4.55;;;2.85;;
41426;SDS011;27171;51.812;19.514;2023-03-14T09:10:52;5.03;;;2.70;;
41426;SDS011;27171;51.812;19.514;2023-03-14T09:13:53;6.43;;;3.50;;
41426;SDS011;27171;51.812;19.514;2023-03-14T09:16:54;5.63;;;3.00;;
41426;SDS011;27171;51.812;19.514;2023-03-14T09:19:55;4.82;;;2.65;;
41426;SDS011;27171;51.812;19.514;2023-03-14T09:22:56;4.53;;;2.45;;
41426;SDS011;27171;51.812;19.514;2023-03-14T09:25:58;6.55;;;2.58;;
41426;SDS011;27171;51.812;19.514;2023-03-14T09:28:59;7.30;;;3.00;;
41426;SDS011;27171;51.812;19.514;2023-03-14T09:32:00;3.88;;;2.33;;
41426;SDS011;27171;51.812;19.514;2023-03-14T09:35:02;5.63;;;2.40;;
41426;SDS011;27171;51.812;19.514;2023-03-14T09:38:03;7.35;;;2.30;;
41426;SDS011;27171;51.812;19.514;2023-03-14T09:41:17;4.65;;;2.47;;
41426;SDS011;27171;51.812;19.514;2023-03-14T09:47:29;6.15;;;2.88;;
41426;SDS011;27171;51.812;19.514;2023-03-14T09:50:32;6.28;;;2.05;;
41426;SDS011;27171;51.812;19.514;2023-03-14T09:56:41;4.20;;;1.98;;
41426;SDS011;27171;51.812;19.514;2023-03-14T09:59:43;4.80;;;2.85;;
41426;SDS011;27171;51.812;19.514;2023-03-14T10:02:53;5.70;;;2.33;;
41426;SDS011;27171;51.812;19.514;2023-03-14T10:06:21;4.72;;;2.35;;
41426;SDS011;27171;51.812;19.514;2023-03-14T10:09:26;4.88;;;2.30;;
41426;SDS011;27171;51.812;19.514;2023-03-14T10:12:32;5.20;;;2.85;;
41426;SDS011;27171;51.812;19.514;2023-03-14T10:15:35;3.58;;;2.25;;
41426;SDS011;27171;51.812;19.514;2023-03-14T10:18:37;4.03;;;1.83;;
41426;SDS011;27171;51.812;19.514;2023-03-14T10:21:39;4.60;;;1.80;;
41426;SDS011;27171;51.812;19.514;2023-03-14T10:24:45;6.22;;;2.50;;
41426;SDS011;27171;51.812;19.514;2023-03-14T10:27:47;4.35;;;1.90;;
41426;SDS011;27171;51.812;19.514;2023-03-14T10:30:48;5.53;;;2.45;;
41426;SDS011;27171;51.812;19.514;2023-03-14T10:37:16;3.05;;;1.80;;
41426;SDS011;27171;51.812;19.514;2023-03-14T10:40:24;3.17;;;2.10;;
41426;SDS011;27171;51.812;19.514;2023-03-14T10:43:39;3.60;;;1.70;;
41426;SDS011;27171;51.812;19.514;2023-03-14T10:50:30;5.95;;;2.20;;
41426;SDS011;27171;51.812;19.514;2023-03-14T10:56:40;5.28;;;2.58;;
41426;SDS011;27171;51.812;19.514;2023-03-14T10:59:42;7.30;;;2.90;;
41426;SDS011;27171;51.812;19.514;2023-03-14T11:29:41;7.40;;;2.35;;
41426;SDS011;27171;51.812;19.514;2023-03-14T11:32:56;6.82;;;3.00;;
41426;SDS011;27171;51.812;19.514;2023-03-14T11:36:08;6.30;;;2.80;;
41426;SDS011;27171;51.812;19.514;2023-03-14T11:39:15;6.53;;;3.67;;
41426;SDS011;27171;51.812;19.514;2023-03-14T11:42:17;4.40;;;2.83;;
41426;SDS011;27171;51.812;19.514;2023-03-14T11:45:21;3.92;;;2.80;;
41426;SDS011;27171;51.812;19.514;2023-03-14T11:51:43;11.80;;;3.33;;
41426;SDS011;27171;51.812;19.514;2023-03-14T11:54:50;5.75;;;3.08;;
41426;SDS011;27171;51.812;19.514;2023-03-14T11:57:58;5.20;;;2.95;;
41426;SDS011;27171;51.812;19.514;2023-03-14T12:01:04;5.53;;;3.15;;
41426;SDS011;27171;51.812;19.514;2023-03-14T12:04:15;5.53;;;2.50;;
41426;SDS011;27171;51.812;19.514;2023-03-14T12:17:36;5.60;;;3.03;;
41426;SDS011;27171;51.812;19.514;2023-03-14T12:20:40;7.00;;;3.22;;
41426;SDS011;27171;51.812;19.514;2023-03-14T12:24:16;7.38;;;3.78;;
41426;SDS011;27171;51.812;19.514;2023-03-14T12:30:45;6.85;;;3.83;;
41426;SDS011;27171;51.812;19.514;2023-03-14T12:33:46;6.80;;;3.80;;
41426;SDS011;27171;51.812;19.514;2023-03-14T12:43:25;6.78;;;4.18;;
41426;SDS011;27171;51.812;19.514;2023-03-14T12:46:34;7.53;;;4.20;;
41426;SDS011;27171;51.812;19.514;2023-03-14T12:49:35;9.90;;;4.95;;
41426;SDS011;27171;51.812;19.514;2023-03-14T12:52:41;8.38;;;5.53;;
41426;SDS011;27171;51.812;19.514;2023-03-14T12:55:57;7.10;;;4.70;;
41426;SDS011;27171;51.812;19.514;2023-03-14T13:02:37;7.20;;;4.68;;
41426;SDS011;27171;51.812;19.514;2023-03-14T13:08:58;6.57;;;4.05;;
41426;SDS011;27171;51.812;19.514;2023-03-14T13:15:31;4.55;;;3.17;;
41426;SDS011;27171;51.812;19.514;2023-03-14T13:18:40;4.70;;;3.88;;
41426;SDS011;27171;51.812;19.514;2023-03-14T13:22:29;5.75;;;4.38;;
41426;SDS011;27171;51.812;19.514;2023-03-14T13:25:34;6.47;;;4.65;;
41426;SDS011;27171;51.812;19.514;2023-03-14T13:28:36;7.78;;;5.32;;
41426;SDS011;27171;51.812;19.514;2023-03-14T13:31:43;7.25;;;4.57;;
41426;SDS011;27171;51.812;19.514;2023-03-14T13:34:50;8.85;;;5.57;;
41426;SDS011;27171;51.812;19.514;2023-03-14T13:37:53;8.52;;;5.22;;
41426;SDS011;27171;51.812;19.514;2023-03-14T13:40:59;10.07;;;5.90;;
41426;SDS011;27171;51.812;19.514;2023-03-14T13:44:05;8.13;;;4.95;;
41426;SDS011;27171;51.812;19.514;2023-03-14T13:47:16;7.15;;;5.18;;
41426;SDS011;27171;51.812;19.514;2023-03-14T13:50:18;7.68;;;5.25;;
41426;SDS011;27171;51.812;19.514;2023-03-14T13:53:21;7.30;;;5.38;;
41426;SDS011;27171;51.812;19.514;2023-03-14T13:56:24;8.32;;;5.35;;
41426;SDS011;27171;51.812;19.514;2023-03-14T13:59:28;9.15;;;6.10;;
41426;SDS011;27171;51.812;19.514;2023-03-14T14:02:31;9.80;;;6.43;;
41426;SDS011;27171;51.812;19.514;2023-03-14T14:05:36;11.25;;;7.25;;
41426;SDS011;27171;51.812;19.514;2023-03-14T14:08:40;9.30;;;6.60;;
41426;SDS011;27171;51.812;19.514;2023-03-14T14:11:42;8.80;;;7.00;;
41426;SDS011;27171;51.812;19.514;2023-03-14T14:17:58;9.03;;;6.23;;
41426;SDS011;27171;51.812;19.514;2023-03-14T14:21:05;8.13;;;5.90;;
41426;SDS011;27171;51.812;19.514;2023-03-14T14:24:08;8.57;;;6.00;;
41426;SDS011;27171;51.812;19.514;2023-03-14T14:33:20;8.85;;;5.78;;
41426;SDS011;27171;51.812;19.514;2023-03-14T14:39:37;9.52;;;5.97;;
41426;SDS011;27171;51.812;19.514;2023-03-14T14:42:40;8.10;;;5.70;;
41426;SDS011;27171;51.812;19.514;2023-03-14T14:45:42;8.02;;;5.68;;
41426;SDS011;27171;51.812;19.514;2023-03-14T14:48:43;8.00;;;5.80;;
41426;SDS011;27171;51.812;19.514;2023-03-14T14:51:48;9.10;;;4.85;;
41426;SDS011;27171;51.812;19.514;2023-03-14T14:57:54;9.75;;;5.57;;
41426;SDS011;27171;51.812;19.514;2023-03-14T15:00:59;10.50;;;5.82;;
41426;SDS011;27171;51.812;19.514;2023-03-14T15:04:14;6.90;;;4.53;;
41426;SDS011;27171;51.812;19.514;2023-03-14T15:07:16;8.68;;;6.13;;
41426;SDS011;27171;51.812;19.514;2023-03-14T15:10:18;8.88;;;5.35;;
41426;SDS011;27171;51.812;19.514;2023-03-14T15:13:21;7.50;;;5.38;;
41426;SDS011;27171;51.812;19.514;2023-03-14T15:16:23;10.15;;;7.53;;
41426;SDS011;27171;51.812;19.514;2023-03-14T15:19:29;8.25;;;5.57;;
41426;SDS011;27171;51.812;19.514;2023-03-14T15:22:30;9.52;;;6.20;;
41426;SDS011;27171;51.812;19.514;2023-03-14T15:25:31;8.13;;;5.03;;
41426;SDS011;27171;51.812;19.514;2023-03-14T15:28:33;8.40;;;4.68;;
41426;SDS011;27171;51.812;19.514;2023-03-14T15:31:34;7.15;;;4.68;;
41426;SDS011;27171;51.812;19.514;2023-03-14T15:34:35;7.80;;;4.75;;
41426;SDS011;27171;51.812;19.514;2023-03-14T15:37:36;8.80;;;5.90;;
41426;SDS011;27171;51.812;19.514;2023-03-14T15:40:38;9.43;;;5.05;;
41426;SDS011;27171;51.812;19.514;2023-03-14T15:43:39;7.05;;;4.60;;
41426;SDS011;27171;51.812;19.514;2023-03-14T15:46:40;7.85;;;4.75;;
41426;SDS011;27171;51.812;19.514;2023-03-14T15:49:42;7.38;;;5.07;;
41426;SDS011;27171;51.812;19.514;2023-03-14T15:52:43;9.70;;;6.05;;
41426;SDS011;27171;51.812;19.514;2023-03-14T15:55:44;7.93;;;5.38;;
41426;SDS011;27171;51.812;19.514;2023-03-14T15:58:45;10.48;;;6.30;;
41426;SDS011;27171;51.812;19.514;2023-03-14T16:01:46;6.22;;;4.38;;
41426;SDS011;27171;51.812;19.514;2023-03-14T16:04:47;7.57;;;4.53;;
41426;SDS011;27171;51.812;19.514;2023-03-14T16:07:49;10.13;;;5.90;;
41426;SDS011;27171;51.812;19.514;2023-03-14T16:10:50;7.47;;;4.38;;
41426;SDS011;27171;51.812;19.514;2023-03-14T16:13:51;7.63;;;4.97;;
41426;SDS011;27171;51.812;19.514;2023-03-14T16:16:52;7.63;;;4.80;;
41426;SDS011;27171;51.812;19.514;2023-03-14T16:19:53;8.25;;;4.78;;
41426;SDS011;27171;51.812;19.514;2023-03-14T16:22:55;7.30;;;4.90;;
41426;SDS011;27171;51.812;19.514;2023-03-14T16:25:56;7.00;;;4.78;;
41426;SDS011;27171;51.812;19.514;2023-03-14T16:28:58;8.00;;;5.03;;
41426;SDS011;27171;51.812;19.514;2023-03-14T16:32:00;6.15;;;4.10;;
41426;SDS011;27171;51.812;19.514;2023-03-14T16:35:01;7.72;;;4.15;;
41426;SDS011;27171;51.812;19.514;2023-03-14T16:38:02;6.68;;;4.53;;
41426;SDS011;27171;51.812;19.514;2023-03-14T16:41:05;6.82;;;4.93;;
41426;SDS011;27171;51.812;19.514;2023-03-14T16:44:07;7.90;;;4.60;;
41426;SDS011;27171;51.812;19.514;2023-03-14T16:47:08;9.77;;;5.20;;
41426;SDS011;27171;51.812;19.514;2023-03-14T16:50:10;8.07;;;5.15;;
41426;SDS011;27171;51.812;19.514;2023-03-14T16:53:11;7.57;;;5.55;;
41426;SDS011;27171;51.812;19.514;2023-03-14T16:56:12;9.05;;;5.00;;
41426;SDS011;27171;51.812;19.514;2023-03-14T16:59:14;8.85;;;5.43;;
41426;SDS011;27171;51.812;19.514;2023-03-14T17:02:15;9.30;;;5.07;;
41426;SDS011;27171;51.812;19.514;2023-03-14T17:05:17;10.70;;;5.00;;
41426;SDS011;27171;51.812;19.514;2023-03-14T17:08:18;9.00;;;5.22;;
41426;SDS011;27171;51.812;19.514;2023-03-14T17:11:20;7.05;;;5.13;;
41426;SDS011;27171;51.812;19.514;2023-03-14T17:14:22;7.13;;;5.18;;
41426;SDS011;27171;51.812;19.514;2023-03-14T17:17:23;8.77;;;5.50;;
41426;SDS011;27171;51.812;19.514;2023-03-14T17:20:24;9.48;;;5.53;;
41426;SDS011;27171;51.812;19.514;2023-03-14T17:23:26;9.95;;;6.60;;
41426;SDS011;27171;51.812;19.514;2023-03-14T17:26:28;10.40;;;5.97;;
41426;SDS011;27171;51.812;19.514;2023-03-14T17:29:29;6.72;;;5.35;;
41426;SDS011;27171;51.812;19.514;2023-03-14T17:32:31;8.48;;;6.57;;
41426;SDS011;27171;51.812;19.514;2023-03-14T17:35:32;8.48;;;5.88;;
41426;SDS011;27171;51.812;19.514;2023-03-14T17:38:33;9.90;;;6.03;;
41426;SDS011;27171;51.812;19.514;2023-03-14T17:41:35;11.43;;;6.72;;
41426;SDS011;27171;51.812;19.514;2023-03-14T17:44:36;8.43;;;5.53;;
41426;SDS011;27171;51.812;19.514;2023-03-14T17:47:37;8.10;;;5.55;;
41426;SDS011;27171;51.812;19.514;2023-03-14T17:50:39;8.05;;;5.50;;
41426;SDS011;27171;51.812;19.514;2023-03-14T17:53:40;9.43;;;6.22;;
41426;SDS011;27171;51.812;19.514;2023-03-14T17:56:41;8.68;;;6.43;;
41426;SDS011;27171;51.812;19.514;2023-03-14T17:59:42;9.63;;;6.63;;
41426;SDS011;27171;51.812;19.514;2023-03-14T18:02:44;8.60;;;6.70;;
41426;SDS011;27171;51.812;19.514;2023-03-14T18:05:45;10.63;;;6.78;;
41426;SDS011;27171;51.812;19.514;2023-03-14T18:08:46;10.02;;;7.25;;
41426;SDS011;27171;51.812;19.514;2023-03-14T18:11:48;9.50;;;6.95;;
41426;SDS011;27171;51.812;19.514;2023-03-14T18:14:49;10.43;;;7.07;;
41426;SDS011;27171;51.812;19.514;2023-03-14T18:17:50;10.55;;;6.47;;
41426;SDS011;27171;51.812;19.514;2023-03-14T18:20:51;11.05;;;7.32;;
41426;SDS011;27171;51.812;19.514;2023-03-14T18:23:53;10.80;;;7.50;;
41426;SDS011;27171;51.812;19.514;2023-03-14T18:26:54;9.98;;;7.18;;
41426;SDS011;27171;51.812;19.514;2023-03-14T18:29:55;11.25;;;7.70;;
41426;SDS011;27171;51.812;19.514;2023-03-14T18:32:56;9.57;;;7.75;;
41426;SDS011;27171;51.812;19.514;2023-03-14T18:35:57;12.10;;;8.93;;
41426;SDS011;27171;51.812;19.514;2023-03-14T18:38:58;16.25;;;8.98;;
41426;SDS011;27171;51.812;19.514;2023-03-14T18:42:00;14.30;;;9.43;;
41426;SDS011;27171;51.812;19.514;2023-03-14T18:45:01;14.38;;;9.75;;
41426;SDS011;27171;51.812;19.514;2023-03-14T18:48:02;13.45;;;9.57;;
41426;SDS011;27171;51.812;19.514;2023-03-14T18:51:04;11.98;;;8.73;;
41426;SDS011;27171;51.812;19.514;2023-03-14T18:54:05;12.57;;;9.23;;
41426;SDS011;27171;51.812;19.514;2023-03-14T18:57:06;11.88;;;8.93;;
41426;SDS011;27171;51.812;19.514;2023-03-14T19:00:08;11.27;;;8.75;;
41426;SDS011;27171;51.812;19.514;2023-03-14T19:03:09;12.20;;;8.82;;
41426;SDS011;27171;51.812;19.514;2023-03-14T19:06:11;10.70;;;7.90;;
41426;SDS011;27171;51.812;19.514;2023-03-14T19:09:13;9.77;;;8.05;;
41426;SDS011;27171;51.812;19.514;2023-03-14T19:12:15;13.35;;;9.10;;
41426;SDS011;27171;51.812;19.514;2023-03-14T19:15:17;10.70;;;8.15;;
41426;SDS011;27171;51.812;19.514;2023-03-14T19:18:18;10.35;;;8.00;;
41426;SDS011;27171;51.812;19.514;2023-03-14T19:21:26;11.07;;;7.63;;
41426;SDS011;27171;51.812;19.514;2023-03-14T19:24:29;11.43;;;8.38;;
41426;SDS011;27171;51.812;19.514;2023-03-14T19:27:30;10.52;;;8.07;;
41426;SDS011;27171;51.812;19.514;2023-03-14T19:30:31;12.00;;;8.45;;
41426;SDS011;27171;51.812;19.514;2023-03-14T19:33:32;9.98;;;7.80;;
41426;SDS011;27171;51.812;19.514;2023-03-14T19:36:35;8.73;;;7.82;;
41426;SDS011;27171;51.812;19.514;2023-03-14T19:39:36;9.40;;;7.38;;
41426;SDS011;27171;51.812;19.514;2023-03-14T19:42:37;10.02;;;8.23;;
41426;SDS011;27171;51.812;19.514;2023-03-14T19:45:40;8.52;;;6.97;;
41426;SDS011;27171;51.812;19.514;2023-03-14T19:48:42;10.73;;;7.75;;
41426;SDS011;27171;51.812;19.514;2023-03-14T19:51:43;9.68;;;7.47;;
41426;SDS011;27171;51.812;19.514;2023-03-14T19:54:44;10.25;;;7.63;;